logo
Search for airport 
image banner adimage banner adimage banner ad
image banner ad

YNBA - Nubeena

Located in Nubeena, Australia

ICAO - , IATA -

Data provided by Airmate  

General information

Coordinates: S43°5'46" E147°44'24"
Elevation is 20 feet MSL.
Magnetic variation is 15° East
View others Airports in Tasmania

Operational data

Special qualification required
Current time UTC:
Current local time:
Weather at : YMHB - Hobart ( 34 km )
METAR: YMHB 281930Z AUTO 34013KT 9999 // NCD 13/07 Q1018 RF00.0/000.2
View NOTAMs / SUP AIP / TFR affecting this airport [VIEW]
Communications frequencies: [VIEW]

Runways:

Airport contact information

Address: Nubeena Australia

Satellite view of YNBA